Ana Sayfa
METAR-TAF:

METAR-TAF

Havaalanları :

Ağrı, Türkiye

Ağrı Ahmed-i Hani Havalimanı

Enlem: 39-39-16N, Boylam: 43-01-38E, yükseklik: 1665 m

Güncel hava durumu gözlemi

Rapor saat 13:50 UTC de 8 saat ve 34 dakika önce yapıldı.
Rüzgar kuzeybatıdan 6 kt
Sıcaklık 6°C
Nem 52%
Basınç 1011 hPa
Görüş mesafesi 10 km veya daha fazla
3500 ft yükseklikte az bulutlu

METAR: LTCO 231350Z 31006KT 9999 FEW035 06/M03 Q1011

Saat: 01:24 (22:24 UTC)

Tahmin

Rapor saat 13:40 UTC de 8 saat ve 44 dakika önce yapıldı.
Ayın 23'si saat 15 UTC'den ayın 23'si saat 24 UTC'ye kadar geçerli Tahmin
Rüzgar kuzey/kuzeybatıdan 6 kt
Görüş mesafesi 10 km veya daha fazla
3500 ft yükseklikte az bulutlu

TAF: LTCO 231340Z 2315/2324 33006KT 9999 FEW035

4.000'den fazla havaalanı için hava durumu gözlemleri ve tahminleri (METAR ve TAF raporları).

Kullanılabilir istasyonlar harita üzerinde sarı ve kırmızı noktalarla gösterilir.

İstasyonun adını görmek için fareyi noktanın üzerinde gezdirin.

Sonrasında hava gözlem ve tahminlerini görmek için tıklayın.

Haritayı değiştirmek için: yaklaştırmak için siyah artı işaretli yeşil düğmeye ve uzaklaştırmak için de eksi işaretli düğmeye hızla tıklayın; bitişik haritalar için yeşil okları kullanın.


METAR-TAF: